Terminal Aerodrome Forecast
Issued by NWS Jackson, KY

Home | Current Version | Previous Version | Text Only | Print | Product List | Glossary On
Versions: 1 2 3 4 5 6 7 8 9 10 11 12 13 14 15
000
FTUS43 KJKL 231100 RRA
TAFLOZ
TAF
KLOZ 231146Z 2312/2412 VRB03KT P6SM SCT040 OVC090
     FM231300 VRB03KT P6SM -RA OVC040
     FM231600 03003KT 3SM -RA BR OVC015
     FM231800 01003KT 2SM -RA BR BKN006 OVC012
     FM240500 33005KT 1SM -SN BR BKN005 OVC010=

USA.gov is the U.S. government's official web portal to all federal, state and local government web resources and services.